aviador You're here:

CYSF Decoded Metar

STONY RAPIDS in SK, CANADA
Report Time2017-05-29 03:00:00
UTC Time2017-05-29 03:50:46
Flight Rules vfr VFR
Wind020° at 05 kt
W.Decomp.*RWY 06: 3.1 kt HW 3.9 kt LCW
W.Rank020° ranks 27
Current wind is above 020° avg. (4.9)
Visibility9999 m
Phenomena:N/A
Clouds:Broken 046 Hf
Expected CloudBase > 4,000 ft AGL from Temp-Dew spread
Ceiling4,600 ft
Temp11°C (ISA -2)
Dew Point01°C (50% RH)
AAT7.4°C
QNH1023 hPa
Density Alt295 ft
Elevation820 ft
Report Wrong Elevation
Raw Report
CYSF 290300Z AUTO 02005KT 320V050 9SM BKN046 11/01 A3020 RMK
SLP238=

Extra information for CYSF:More info

Metar Taf Metar & Taf Last 4 Metars F.Rules Stats Wind Profile Meteogram Temp Stats Airport Information Weather charts Add Link Nearby VenuesMetar ALERT Operation Metar Decoded Social comments